Lawrence Municipal Airport Lawrence US
ICAO: KLWM
IATA: LWM
Category: Medium
Scheduled Services: No

Elevation: 148 ft
TransAlt. 18000 ft.

Airport Communications:
BOSTON APP/DEP:124.4
ASOS:126.75
ATIS:126.75
CLNC DEL:124.3
CTAF:119.25
GND:124.3
BRIDGEPORT RDO:112.5
TWR:119.25
UNICOM:122.8

KLWM Zoom In..

If you have problems with the map follow the link
https://www.worldairports.se/pages/airport.php?
ICAO=KLWM

Runways:

(A) RW 05 length 5001 ft width 150 ft
ILS 111.70 / hdg 53

(B) RW 14 length 3900 ft width 100 ft
---- / hdg 137

(C) RW 23 length 5001 ft width 150 ft
---- / hdg 233

(D) RW 32 length 3900 ft width 100 ft
---- / hdg 317

Location; KLWM
Day. 22 / Time. 15.54 Zulu
* Altimeter: 30.30
* Temperature: 03° c. 37.4°f.
* Wind from: 310° Speed 10 kn with Gusts up to 15 kn.
Dewpoint: -07° c.
Visibility: 10 Statute Miles.
Clouds: Few 4400 ft.

KLWM 221554Z 31010G15KT 10SM FEW044 03/M07 A3030 RMK AO2 SLP262 T00331067


Wind From 310°
Speed 10 kn.

 
 
jpsmedia.com for Web Design worldairports.se 2019   terms of use